sensor_id;sensor_type;location;lat;lon;timestamp;pressure;altitude;pressure_sealevel;temperature;humidity
6532;BME280;3299;42.004;24.868;2023-01-15T00:01:25;98702.66;;;6.58;100.00
6532;BME280;3299;42.004;24.868;2023-01-15T00:03:53;98751.13;;;7.01;100.00
6532;BME280;3299;42.004;24.868;2023-01-15T00:06:19;98737.50;;;6.99;100.00
6532;BME280;3299;42.004;24.868;2023-01-15T00:08:46;98724.13;;;6.76;100.00
6532;BME280;3299;42.004;24.868;2023-01-15T00:11:11;98740.91;;;6.83;100.00
6532;BME280;3299;42.004;24.868;2023-01-15T00:13:37;98710.94;;;6.65;100.00
6532;BME280;3299;42.004;24.868;2023-01-15T00:16:17;98663.28;;;6.41;100.00
6532;BME280;3299;42.004;24.868;2023-01-15T00:18:45;98765.66;;;7.02;100.00
6532;BME280;3299;42.004;24.868;2023-01-15T00:21:13;98743.84;;;6.92;100.00
6532;BME280;3299;42.004;24.868;2023-01-15T00:23:38;98757.25;;;6.82;100.00
6532;BME280;3299;42.004;24.868;2023-01-15T00:26:26;98721.50;;;6.59;100.00
6532;BME280;3299;42.004;24.868;2023-01-15T00:29:11;98759.25;;;6.75;100.00
6532;BME280;3299;42.004;24.868;2023-01-15T00:31:36;98719.59;;;6.45;100.00
6532;BME280;3299;42.004;24.868;2023-01-15T00:34:02;98746.38;;;6.58;100.00
6532;BME280;3299;42.004;24.868;2023-01-15T00:36:28;98704.75;;;6.33;100.00
6532;BME280;3299;42.004;24.868;2023-01-15T00:38:53;98702.69;;;6.23;100.00
6532;BME280;3299;42.004;24.868;2023-01-15T00:41:19;98737.59;;;6.45;100.00
6532;BME280;3299;42.004;24.868;2023-01-15T00:43:45;98727.97;;;6.49;100.00
6532;BME280;3299;42.004;24.868;2023-01-15T00:46:11;98749.56;;;6.63;100.00
6532;BME280;3299;42.004;24.868;2023-01-15T00:48:37;98707.41;;;6.49;100.00
6532;BME280;3299;42.004;24.868;2023-01-15T00:51:02;98738.84;;;6.72;100.00
6532;BME280;3299;42.004;24.868;2023-01-15T00:53:29;98698.63;;;6.36;100.00
6532;BME280;3299;42.004;24.868;2023-01-15T00:55:54;98740.47;;;6.56;100.00
6532;BME280;3299;42.004;24.868;2023-01-15T00:58:20;98741.22;;;6.58;100.00
6532;BME280;3299;42.004;24.868;2023-01-15T01:00:45;98740.25;;;6.61;100.00
6532;BME280;3299;42.004;24.868;2023-01-15T01:03:11;98731.72;;;6.60;100.00
6532;BME280;3299;42.004;24.868;2023-01-15T01:05:36;98749.53;;;6.82;100.00
6532;BME280;3299;42.004;24.868;2023-01-15T01:08:01;98740.06;;;6.82;100.00
6532;BME280;3299;42.004;24.868;2023-01-15T01:10:27;98692.44;;;6.57;100.00
6532;BME280;3299;42.004;24.868;2023-01-15T01:12:53;98698.56;;;6.54;100.00
6532;BME280;3299;42.004;24.868;2023-01-15T01:15:20;98708.44;;;6.63;100.00
6532;BME280;3299;42.004;24.868;2023-01-15T01:17:46;98754.28;;;7.06;100.00
6532;BME280;3299;42.004;24.868;2023-01-15T01:20:13;98692.72;;;6.69;100.00
6532;BME280;3299;42.004;24.868;2023-01-15T01:22:39;98725.47;;;6.83;100.00
6532;BME280;3299;42.004;24.868;2023-01-15T01:25:05;98734.19;;;6.97;100.00
6532;BME280;3299;42.004;24.868;2023-01-15T01:27:31;98754.47;;;7.03;100.00
6532;BME280;3299;42.004;24.868;2023-01-15T01:29:56;98693.16;;;6.60;100.00
6532;BME280;3299;42.004;24.868;2023-01-15T01:32:22;98689.53;;;6.64;100.00
6532;BME280;3299;42.004;24.868;2023-01-15T01:34:47;98692.72;;;6.69;100.00
6532;BME280;3299;42.004;24.868;2023-01-15T01:37:13;98750.16;;;7.04;100.00
6532;BME280;3299;42.004;24.868;2023-01-15T01:39:39;98747.41;;;7.07;100.00
6532;BME280;3299;42.004;24.868;2023-01-15T01:42:15;98699.50;;;6.70;100.00
6532;BME280;3299;42.004;24.868;2023-01-15T01:47:15;98737.72;;;6.78;100.00
6532;BME280;3299;42.004;24.868;2023-01-15T01:49:46;98696.91;;;6.53;100.00
6532;BME280;3299;42.004;24.868;2023-01-15T01:52:59;98744.91;;;6.88;100.00
6532;BME280;3299;42.004;24.868;2023-01-15T01:55:04;98742.72;;;6.81;100.00
6532;BME280;3299;42.004;24.868;2023-01-15T01:57:31;98703.59;;;6.57;100.00
6532;BME280;3299;42.004;24.868;2023-01-15T01:59:58;98687.84;;;6.63;100.00
6532;BME280;3299;42.004;24.868;2023-01-15T02:02:25;98682.28;;;6.72;100.00
6532;BME280;3299;42.004;24.868;2023-01-15T02:04:51;98729.34;;;7.08;100.00
6532;BME280;3299;42.004;24.868;2023-01-15T02:07:16;98749.09;;;7.25;100.00
6532;BME280;3299;42.004;24.868;2023-01-15T02:09:42;98684.41;;;6.81;100.00
6532;BME280;3299;42.004;24.868;2023-01-15T02:12:15;98743.94;;;7.08;100.00
6532;BME280;3299;42.004;24.868;2023-01-15T02:17:15;98679.72;;;6.72;100.00
6532;BME280;3299;42.004;24.868;2023-01-15T02:19:46;98742.44;;;7.04;100.00
6532;BME280;3299;42.004;24.868;2023-01-15T02:25:56;98738.19;;;7.03;100.00
6532;BME280;3299;42.004;24.868;2023-01-15T02:28:15;98729.34;;;7.08;100.00
6532;BME280;3299;42.004;24.868;2023-01-15T02:30:46;98678.81;;;6.73;100.00
6532;BME280;3299;42.004;24.868;2023-01-15T02:33:19;98635.75;;;6.43;100.00
6532;BME280;3299;42.004;24.868;2023-01-15T02:35:53;98740.75;;;6.86;100.00
6532;BME280;3299;42.004;24.868;2023-01-15T02:38:23;98691.09;;;6.50;100.00
6532;BME280;3299;42.004;24.868;2023-01-15T02:40:52;98723.84;;;6.63;100.00
6532;BME280;3299;42.004;24.868;2023-01-15T02:43:21;98675.88;;;6.28;100.00
6532;BME280;3299;42.004;24.868;2023-01-15T02:45:50;98712.03;;;6.59;100.00
6532;BME280;3299;42.004;24.868;2023-01-15T02:48:19;98732.72;;;6.75;100.00
6532;BME280;3299;42.004;24.868;2023-01-15T02:50:51;98629.16;;;6.20;100.00
6532;BME280;3299;42.004;24.868;2023-01-15T02:53:22;98723.22;;;6.94;100.00
6532;BME280;3299;42.004;24.868;2023-01-15T02:55:50;98735.47;;;6.89;100.00
6532;BME280;3299;42.004;24.868;2023-01-15T02:58:28;98632.41;;;6.24;100.00
6532;BME280;3299;42.004;24.868;2023-01-15T03:00:55;98703.31;;;6.80;100.00
6532;BME280;3299;42.004;24.868;2023-01-15T03:03:35;98733.28;;;6.98;100.00
6532;BME280;3299;42.004;24.868;2023-01-15T03:08:44;98736.75;;;6.97;100.00
6532;BME280;3299;42.004;24.868;2023-01-15T03:11:17;98732.72;;;6.92;100.00
6532;BME280;3299;42.004;24.868;2023-01-15T03:16:38;98722.66;;;6.87;100.00
6532;BME280;3299;42.004;24.868;2023-01-15T03:24:09;98689.22;;;6.70;100.00
6532;BME280;3299;42.004;24.868;2023-01-15T03:26:36;98690.75;;;6.74;100.00
6532;BME280;3299;42.004;24.868;2023-01-15T03:29:02;98674.63;;;6.71;100.00
6532;BME280;3299;42.004;24.868;2023-01-15T03:31:29;98675.16;;;6.77;100.00
6532;BME280;3299;42.004;24.868;2023-01-15T03:33:55;98675.03;;;6.80;100.00
6532;BME280;3299;42.004;24.868;2023-01-15T03:36:20;98684.25;;;6.84;100.00
6532;BME280;3299;42.004;24.868;2023-01-15T03:38:46;98655.00;;;6.70;100.00
6532;BME280;3299;42.004;24.868;2023-01-15T03:44:25;98717.59;;;7.03;100.00
6532;BME280;3299;42.004;24.868;2023-01-15T03:49:55;98733.44;;;6.95;100.00
6532;BME280;3299;42.004;24.868;2023-01-15T03:57:42;98708.59;;;6.94;100.00
6532;BME280;3299;42.004;24.868;2023-01-15T04:00:29;98703.53;;;6.76;100.00
6532;BME280;3299;42.004;24.868;2023-01-15T04:02:58;98660.94;;;6.53;100.00
6532;BME280;3299;42.004;24.868;2023-01-15T04:05:26;98672.72;;;6.57;100.00
6532;BME280;3299;42.004;24.868;2023-01-15T04:07:53;98738.59;;;6.95;100.00
6532;BME280;3299;42.004;24.868;2023-01-15T04:10:19;98684.88;;;6.72;100.00
6532;BME280;3299;42.004;24.868;2023-01-15T04:12:45;98633.94;;;6.45;100.00
6532;BME280;3299;42.004;24.868;2023-01-15T04:15:11;98672.69;;;6.76;100.00
6532;BME280;3299;42.004;24.868;2023-01-15T04:17:36;98737.56;;;7.15;100.00
6532;BME280;3299;42.004;24.868;2023-01-15T04:20:02;98695.00;;;6.92;100.00
6532;BME280;3299;42.004;24.868;2023-01-15T04:22:28;98724.28;;;7.07;100.00
6532;BME280;3299;42.004;24.868;2023-01-15T04:24:55;98741.59;;;6.86;100.00
6532;BME280;3299;42.004;24.868;2023-01-15T04:27:21;98723.00;;;6.63;100.00
6532;BME280;3299;42.004;24.868;2023-01-15T04:29:46;98684.03;;;6.36;100.00
6532;BME280;3299;42.004;24.868;2023-01-15T04:32:11;98678.88;;;6.36;100.00
6532;BME280;3299;42.004;24.868;2023-01-15T04:34:37;98659.59;;;6.28;100.00
6532;BME280;3299;42.004;24.868;2023-01-15T04:37:02;98723.44;;;6.72;100.00
6532;BME280;3299;42.004;24.868;2023-01-15T04:39:28;98698.00;;;6.66;100.00
6532;BME280;3299;42.004;24.868;2023-01-15T04:41:53;98745.81;;;7.04;100.00
6532;BME280;3299;42.004;24.868;2023-01-15T04:44:38;98715.56;;;6.92;100.00
6532;BME280;3299;42.004;24.868;2023-01-15T04:47:04;98727.06;;;7.02;100.00
6532;BME280;3299;42.004;24.868;2023-01-15T04:49:29;98744.00;;;7.06;100.00
6532;BME280;3299;42.004;24.868;2023-01-15T04:51:55;98718.88;;;6.77;100.00
6532;BME280;3299;42.004;24.868;2023-01-15T04:54:20;98660.94;;;6.53;100.00
6532;BME280;3299;42.004;24.868;2023-01-15T04:56:49;98761.50;;;7.17;100.00
6532;BME280;3299;42.004;24.868;2023-01-15T04:59:17;98710.47;;;6.74;100.00
6532;BME280;3299;42.004;24.868;2023-01-15T05:01:43;98743.56;;;6.98;100.00
6532;BME280;3299;42.004;24.868;2023-01-15T05:04:08;98760.00;;;6.77;100.00
6532;BME280;3299;42.004;24.868;2023-01-15T05:06:34;98730.50;;;6.50;100.00
6532;BME280;3299;42.004;24.868;2023-01-15T05:09:00;98715.16;;;6.30;100.00
6532;BME280;3299;42.004;24.868;2023-01-15T05:11:26;98726.44;;;6.45;100.00
6532;BME280;3299;42.004;24.868;2023-01-15T05:13:52;98716.56;;;6.54;100.00
6532;BME280;3299;42.004;24.868;2023-01-15T05:16:22;98714.84;;;6.55;100.00
6532;BME280;3299;42.004;24.868;2023-01-15T05:18:50;98761.78;;;6.77;100.00
6532;BME280;3299;42.004;24.868;2023-01-15T05:21:22;98762.53;;;6.79;100.00
6532;BME280;3299;42.004;24.868;2023-01-15T05:23:49;98724.41;;;6.34;100.00
6532;BME280;3299;42.004;24.868;2023-01-15T05:26:16;98771.78;;;6.64;100.00
6532;BME280;3299;42.004;24.868;2023-01-15T05:28:42;98772.00;;;6.78;100.00
6532;BME280;3299;42.004;24.868;2023-01-15T05:31:12;98748.03;;;6.59;100.00
6532;BME280;3299;42.004;24.868;2023-01-15T05:33:38;98772.56;;;6.66;100.00
6532;BME280;3299;42.004;24.868;2023-01-15T05:36:07;98757.78;;;6.53;100.00
6532;BME280;3299;42.004;24.868;2023-01-15T05:38:32;98769.00;;;6.69;100.00
6532;BME280;3299;42.004;24.868;2023-01-15T05:40:58;98773.09;;;6.73;100.00
6532;BME280;3299;42.004;24.868;2023-01-15T05:43:24;98772.88;;;6.77;100.00
6532;BME280;3299;42.004;24.868;2023-01-15T05:45:49;98712.47;;;6.33;100.00
6532;BME280;3299;42.004;24.868;2023-01-15T05:48:15;98719.19;;;6.17;100.00
6532;BME280;3299;42.004;24.868;2023-01-15T05:50:40;98721.03;;;6.15;100.00
6532;BME280;3299;42.004;24.868;2023-01-15T05:53:06;98776.81;;;6.49;100.00
6532;BME280;3299;42.004;24.868;2023-01-15T05:55:31;98780.75;;;6.56;100.00
6532;BME280;3299;42.004;24.868;2023-01-15T05:57:57;98771.25;;;6.58;100.00
6532;BME280;3299;42.004;24.868;2023-01-15T06:00:23;98726.63;;;6.23;100.00
6532;BME280;3299;42.004;24.868;2023-01-15T06:02:50;98771.31;;;6.56;100.00
6532;BME280;3299;42.004;24.868;2023-01-15T06:05:16;98789.09;;;6.61;100.00
6532;BME280;3299;42.004;24.868;2023-01-15T06:07:47;98725.53;;;6.29;100.00
6532;BME280;3299;42.004;24.868;2023-01-15T06:10:14;98769.28;;;6.63;100.00
6532;BME280;3299;42.004;24.868;2023-01-15T06:12:40;98714.13;;;6.34;100.00
6532;BME280;3299;42.004;24.868;2023-01-15T06:15:06;98776.44;;;6.75;100.00
6532;BME280;3299;42.004;24.868;2023-01-15T06:17:31;98771.31;;;6.75;100.00
6532;BME280;3299;42.004;24.868;2023-01-15T06:19:57;98681.00;;;6.10;100.00
6532;BME280;3299;42.004;24.868;2023-01-15T06:22:22;98725.69;;;6.43;100.00
6532;BME280;3299;42.004;24.868;2023-01-15T06:24:47;98764.28;;;6.78;100.00
6532;BME280;3299;42.004;24.868;2023-01-15T06:27:13;98731.72;;;6.60;100.00
6532;BME280;3299;42.004;24.868;2023-01-15T06:29:38;98737.47;;;6.65;100.00
6532;BME280;3299;42.004;24.868;2023-01-15T06:32:04;98730.03;;;6.59;100.00
6532;BME280;3299;42.004;24.868;2023-01-15T06:34:29;98770.63;;;6.88;100.00
6532;BME280;3299;42.004;24.868;2023-01-15T06:36:54;98719.75;;;6.59;100.00
6532;BME280;3299;42.004;24.868;2023-01-15T06:39:20;98767.13;;;6.72;100.00
6532;BME280;3299;42.004;24.868;2023-01-15T06:41:45;98774.00;;;6.72;100.00
6532;BME280;3299;42.004;24.868;2023-01-15T06:44:29;98737.84;;;6.58;100.00
6532;BME280;3299;42.004;24.868;2023-01-15T06:47:15;98688.06;;;6.42;100.00
6532;BME280;3299;42.004;24.868;2023-01-15T06:49:45;98784.34;;;7.06;100.00
6532;BME280;3299;42.004;24.868;2023-01-15T06:52:10;98782.00;;;7.01;100.00
6532;BME280;3299;42.004;24.868;2023-01-15T06:54:36;98776.88;;;7.01;100.00
6532;BME280;3299;42.004;24.868;2023-01-15T06:57:01;98781.84;;;7.04;100.00
6532;BME280;3299;42.004;24.868;2023-01-15T06:59:27;98711.63;;;6.68;100.00
6532;BME280;3299;42.004;24.868;2023-01-15T07:01:53;98741.28;;;6.92;100.00
6532;BME280;3299;42.004;24.868;2023-01-15T07:04:18;98721.13;;;6.83;100.00
6532;BME280;3299;42.004;24.868;2023-01-15T07:06:44;98757.41;;;7.13;100.00
6532;BME280;3299;42.004;24.868;2023-01-15T07:09:09;98735.09;;;7.13;100.00
6532;BME280;3299;42.004;24.868;2023-01-15T07:11:35;98763.22;;;7.33;100.00
6532;BME280;3299;42.004;24.868;2023-01-15T07:14:14;98793.13;;;7.53;100.00
6532;BME280;3299;42.004;24.868;2023-01-15T07:16:39;98746.50;;;7.08;100.00
6532;BME280;3299;42.004;24.868;2023-01-15T07:19:04;98735.91;;;7.14;100.00
6532;BME280;3299;42.004;24.868;2023-01-15T07:21:30;98787.25;;;7.51;100.00
6532;BME280;3299;42.004;24.868;2023-01-15T07:23:59;98797.38;;;7.54;100.00
6532;BME280;3299;42.004;24.868;2023-01-15T07:26:25;98746.19;;;7.31;100.00
6532;BME280;3299;42.004;24.868;2023-01-15T07:28:51;98766.66;;;7.51;100.00
6532;BME280;3299;42.004;24.868;2023-01-15T07:31:16;98796.75;;;7.66;100.00
6532;BME280;3299;42.004;24.868;2023-01-15T07:33:41;98765.50;;;7.56;100.00
6532;BME280;3299;42.004;24.868;2023-01-15T07:36:07;98710.72;;;7.20;100.00
6532;BME280;3299;42.004;24.868;2023-01-15T07:38:32;98788.88;;;7.69;100.00
6532;BME280;3299;42.004;24.868;2023-01-15T07:40:58;98789.50;;;7.74;100.00
6532;BME280;3299;42.004;24.868;2023-01-15T07:43:42;98807.78;;;7.85;100.00
6532;BME280;3299;42.004;24.868;2023-01-15T07:46:26;98806.97;;;7.67;100.00
6532;BME280;3299;42.004;24.868;2023-01-15T07:49:10;98811.16;;;7.70;100.00
6532;BME280;3299;42.004;24.868;2023-01-15T07:51:54;98811.97;;;7.70;100.00
6532;BME280;3299;42.004;24.868;2023-01-15T07:54:20;98757.25;;;7.33;100.00
6532;BME280;3299;42.004;24.868;2023-01-15T07:56:45;98809.88;;;7.61;100.00
6532;BME280;3299;42.004;24.868;2023-01-15T07:59:11;98797.97;;;7.42;100.00
6532;BME280;3299;42.004;24.868;2023-01-15T08:01:37;98782.16;;;7.32;100.00
6532;BME280;3299;42.004;24.868;2023-01-15T08:04:02;98809.44;;;7.36;100.00
6532;BME280;3299;42.004;24.868;2023-01-15T08:06:27;98745.81;;;7.04;100.00
6532;BME280;3299;42.004;24.868;2023-01-15T08:08:53;98808.03;;;7.29;100.00
6532;BME280;3299;42.004;24.868;2023-01-15T08:11:18;98761.66;;;7.14;100.00
6532;BME280;3299;42.004;24.868;2023-01-15T08:14:02;98725.63;;;6.97;100.00
6532;BME280;3299;42.004;24.868;2023-01-15T08:16:46;98806.25;;;7.31;100.00
6532;BME280;3299;42.004;24.868;2023-01-15T08:19:12;98781.72;;;7.24;100.00
6532;BME280;3299;42.004;24.868;2023-01-15T08:21:37;98820.16;;;7.44;100.00
6532;BME280;3299;42.004;24.868;2023-01-15T08:24:03;98831.22;;;7.46;100.00
6532;BME280;3299;42.004;24.868;2023-01-15T08:26:28;98774.75;;;7.09;100.00
6532;BME280;3299;42.004;24.868;2023-01-15T08:28:53;98827.88;;;7.44;100.00
6532;BME280;3299;42.004;24.868;2023-01-15T08:31:19;98813.59;;;7.39;100.00
6532;BME280;3299;42.004;24.868;2023-01-15T08:33:44;98722.00;;;6.84;100.00
6532;BME280;3299;42.004;24.868;2023-01-15T08:36:10;98802.06;;;7.29;100.00
6532;BME280;3299;42.004;24.868;2023-01-15T08:38:35;98796.38;;;7.22;100.00
6532;BME280;3299;42.004;24.868;2023-01-15T08:41:00;98812.69;;;7.40;100.00
6532;BME280;3299;42.004;24.868;2023-01-15T08:43:30;98831.31;;;7.45;100.00
6532;BME280;3299;42.004;24.868;2023-01-15T08:45:58;98815.31;;;7.55;100.00
6532;BME280;3299;42.004;24.868;2023-01-15T08:48:25;98820.97;;;7.62;100.00
6532;BME280;3299;42.004;24.868;2023-01-15T08:50:50;98759.81;;;7.33;100.00
6532;BME280;3299;42.004;24.868;2023-01-15T08:53:16;98764.53;;;7.25;100.00
6532;BME280;3299;42.004;24.868;2023-01-15T08:55:44;98719.19;;;6.88;100.00
6532;BME280;3299;42.004;24.868;2023-01-15T08:58:09;98817.59;;;7.44;100.00
6532;BME280;3299;42.004;24.868;2023-01-15T09:00:35;98719.66;;;6.79;100.00
6532;BME280;3299;42.004;24.868;2023-01-15T09:03:00;98805.78;;;7.40;100.00
6532;BME280;3299;42.004;24.868;2023-01-15T09:05:25;98792.00;;;7.41;100.00
6532;BME280;3299;42.004;24.868;2023-01-15T09:07:52;98755.50;;;7.16;100.00
6532;BME280;3299;42.004;24.868;2023-01-15T09:10:18;98792.38;;;7.51;100.00
6532;BME280;3299;42.004;24.868;2023-01-15T09:12:43;98790.88;;;7.47;100.00
6532;BME280;3299;42.004;24.868;2023-01-15T09:15:09;98787.69;;;7.42;100.00
6532;BME280;3299;42.004;24.868;2023-01-15T09:17:35;98744.09;;;7.22;100.00
6532;BME280;3299;42.004;24.868;2023-01-15T09:20:05;98730.25;;;7.07;100.00
6532;BME280;3299;42.004;24.868;2023-01-15T09:22:31;98725.38;;;7.18;100.00
6532;BME280;3299;42.004;24.868;2023-01-15T09:24:57;98725.84;;;7.26;100.00
6532;BME280;3299;42.004;24.868;2023-01-15T09:27:22;98780.09;;;7.56;100.00
6532;BME280;3299;42.004;24.868;2023-01-15T09:29:47;98743.25;;;7.38;100.00
6532;BME280;3299;42.004;24.868;2023-01-15T09:32:13;98719.84;;;7.26;100.00
6532;BME280;3299;42.004;24.868;2023-01-15T09:34:38;98730.53;;;7.35;100.00
6532;BME280;3299;42.004;24.868;2023-01-15T09:37:04;98750.22;;;7.53;100.00
6532;BME280;3299;42.004;24.868;2023-01-15T09:39:29;98704.47;;;7.41;100.00
6532;BME280;3299;42.004;24.868;2023-01-15T09:45:05;98779.22;;;7.89;100.00
6532;BME280;3299;42.004;24.868;2023-01-15T09:47:39;98761.50;;;7.83;100.00
6532;BME280;3299;42.004;24.868;2023-01-15T09:55:45;98755.22;;;7.72;100.00
6532;BME280;3299;42.004;24.868;2023-01-15T09:58:13;98728.66;;;7.71;100.00
6532;BME280;3299;42.004;24.868;2023-01-15T10:00:43;98745.44;;;7.78;100.00
6532;BME280;3299;42.004;24.868;2023-01-15T10:05:52;98759.78;;;7.99;100.00
6532;BME280;3299;42.004;24.868;2023-01-15T10:10:55;98717.38;;;7.74;100.00
6532;BME280;3299;42.004;24.868;2023-01-15T10:13:52;98727.84;;;7.86;100.00
6532;BME280;3299;42.004;24.868;2023-01-15T10:16:25;98682.94;;;7.59;100.00
6532;BME280;3299;42.004;24.868;2023-01-15T10:18:51;98722.72;;;8.02;100.00
6532;BME280;3299;42.004;24.868;2023-01-15T10:24:29;98727.19;;;7.98;100.00
6532;BME280;3299;42.004;24.868;2023-01-15T10:31:54;98696.84;;;7.72;100.00
6532;BME280;3299;42.004;24.868;2023-01-15T10:37:16;98644.00;;;7.33;100.00
6532;BME280;3299;42.004;24.868;2023-01-15T10:45:23;98697.09;;;7.83;100.00
6532;BME280;3299;42.004;24.868;2023-01-15T10:48:01;98683.63;;;7.78;100.00
6532;BME280;3299;42.004;24.868;2023-01-15T10:50:28;98682.25;;;7.88;100.00
6532;BME280;3299;42.004;24.868;2023-01-15T10:55:53;98659.72;;;7.92;100.00
6532;BME280;3299;42.004;24.868;2023-01-15T10:58:39;98642.09;;;7.84;100.00
6532;BME280;3299;42.004;24.868;2023-01-15T11:01:14;98599.56;;;7.77;100.00
6532;BME280;3299;42.004;24.868;2023-01-15T11:03:42;98663.03;;;8.09;100.00
6532;BME280;3299;42.004;24.868;2023-01-15T11:06:16;98658.88;;;8.07;100.00
6532;BME280;3299;42.004;24.868;2023-01-15T11:08:46;98608.69;;;7.67;100.00
6532;BME280;3299;42.004;24.868;2023-01-15T11:14:42;98616.75;;;7.92;100.00
6532;BME280;3299;42.004;24.868;2023-01-15T11:17:30;98602.38;;;7.88;100.00
6532;BME280;3299;42.004;24.868;2023-01-15T11:22:45;98565.63;;;7.85;100.00
6532;BME280;3299;42.004;24.868;2023-01-15T11:25:10;98587.25;;;7.98;100.00
6532;BME280;3299;42.004;24.868;2023-01-15T11:27:36;98636.53;;;8.23;100.00
6532;BME280;3299;42.004;24.868;2023-01-15T11:30:05;98637.53;;;8.20;100.00
6532;BME280;3299;42.004;24.868;2023-01-15T11:32:36;98570.03;;;7.98;100.00
6532;BME280;3299;42.004;24.868;2023-01-15T11:37:27;98628.97;;;8.20;100.00
6532;BME280;3299;42.004;24.868;2023-01-15T11:39:57;98583.09;;;7.95;100.00
6532;BME280;3299;42.004;24.868;2023-01-15T11:42:29;98571.78;;;7.98;100.00
6532;BME280;3299;42.004;24.868;2023-01-15T11:45:19;98618.88;;;8.31;100.00
6532;BME280;3299;42.004;24.868;2023-01-15T11:48:14;98608.25;;;8.21;100.00
6532;BME280;3299;42.004;24.868;2023-01-15T11:53:31;98608.84;;;8.26;100.00
6532;BME280;3299;42.004;24.868;2023-01-15T11:55:59;98582.66;;;8.18;100.00
6532;BME280;3299;42.004;24.868;2023-01-15T11:58:27;98593.19;;;8.14;100.00
6532;BME280;3299;42.004;24.868;2023-01-15T12:00:55;98569.19;;;8.13;100.00
6532;BME280;3299;42.004;24.868;2023-01-15T12:03:25;98555.47;;;8.13;100.00
6532;BME280;3299;42.004;24.868;2023-01-15T12:16:51;98593.72;;;8.79;100.00
6532;BME280;3299;42.004;24.868;2023-01-15T12:20:15;98596.78;;;8.86;100.00
6532;BME280;3299;42.004;24.868;2023-01-15T12:28:12;98587.19;;;8.44;100.00
6532;BME280;3299;42.004;24.868;2023-01-15T12:31:05;98580.19;;;8.46;100.00
6532;BME280;3299;42.004;24.868;2023-01-15T12:33:54;98580.38;;;8.43;100.00
6532;BME280;3299;42.004;24.868;2023-01-15T12:36:30;98575.38;;;8.40;100.00
6532;BME280;3299;42.004;24.868;2023-01-15T12:39:04;98578.22;;;8.36;100.00
6532;BME280;3299;42.004;24.868;2023-01-15T12:41:34;98581.88;;;8.16;100.00
6532;BME280;3299;42.004;24.868;2023-01-15T12:44:31;98578.00;;;8.09;100.00
6532;BME280;3299;42.004;24.868;2023-01-15T12:47:21;98514.66;;;7.76;100.00
6532;BME280;3299;42.004;24.868;2023-01-15T12:49:57;98570.25;;;8.09;100.00
6532;BME280;3299;42.004;24.868;2023-01-15T12:52:30;98573.25;;;8.17;100.00
6532;BME280;3299;42.004;24.868;2023-01-15T12:57:36;98566.94;;;8.23;100.00
6532;BME280;3299;42.004;24.868;2023-01-15T13:00:22;98551.22;;;8.12;100.00
6532;BME280;3299;42.004;24.868;2023-01-15T13:03:22;98556.38;;;8.27;100.00
6532;BME280;3299;42.004;24.868;2023-01-15T13:05:53;98567.59;;;8.26;100.00
6532;BME280;3299;42.004;24.868;2023-01-15T13:10:50;98515.13;;;7.82;100.00
6532;BME280;3299;42.004;24.868;2023-01-15T13:16:13;98559.56;;;8.01;100.00
6532;BME280;3299;42.004;24.868;2023-01-15T13:21:35;98457.47;;;7.40;100.00
6532;BME280;3299;42.004;24.868;2023-01-15T13:24:17;98514.03;;;7.86;100.00
6532;BME280;3299;42.004;24.868;2023-01-15T13:26:56;98561.28;;;8.16;100.00
6532;BME280;3299;42.004;24.868;2023-01-15T13:29:55;98551.06;;;7.99;100.00
6532;BME280;3299;42.004;24.868;2023-01-15T13:32:38;98517.16;;;7.77;100.00
6532;BME280;3299;42.004;24.868;2023-01-15T13:37:49;98503.38;;;7.63;100.00
6532;BME280;3299;42.004;24.868;2023-01-15T13:40:39;98493.88;;;7.63;100.00
6532;BME280;3299;42.004;24.868;2023-01-15T13:43:07;98486.16;;;7.63;100.00
6532;BME280;3299;42.004;24.868;2023-01-15T13:50:57;98533.38;;;7.93;100.00
6532;BME280;3299;42.004;24.868;2023-01-15T13:53:39;98527.25;;;7.80;100.00
6532;BME280;3299;42.004;24.868;2023-01-15T13:56:11;98482.94;;;7.60;100.00
6532;BME280;3299;42.004;24.868;2023-01-15T13:59:00;98486.16;;;7.63;100.00
6532;BME280;3299;42.004;24.868;2023-01-15T14:04:12;98532.16;;;8.00;100.00
6532;BME280;3299;42.004;24.868;2023-01-15T14:06:50;98531.34;;;7.84;100.00
6532;BME280;3299;42.004;24.868;2023-01-15T14:14:47;98539.53;;;7.91;100.00
6532;BME280;3299;42.004;24.868;2023-01-15T14:31:18;98512.00;;;7.77;100.00
6532;BME280;3299;42.004;24.868;2023-01-15T14:34:07;98504.28;;;7.77;100.00
6532;BME280;3299;42.004;24.868;2023-01-15T14:36:39;98461.44;;;7.45;100.00
6532;BME280;3299;42.004;24.868;2023-01-15T14:39:23;98518.22;;;7.73;100.00
6532;BME280;3299;42.004;24.868;2023-01-15T14:41:56;98505.41;;;7.72;100.00
6532;BME280;3299;42.004;24.868;2023-01-15T14:44:43;98452.44;;;7.52;100.00
6532;BME280;3299;42.004;24.868;2023-01-15T14:47:20;98507.66;;;7.78;100.00
6532;BME280;3299;42.004;24.868;2023-01-15T14:49:59;98496.38;;;7.65;100.00
6532;BME280;3299;42.004;24.868;2023-01-15T14:52:25;98502.72;;;7.59;100.00
6532;BME280;3299;42.004;24.868;2023-01-15T14:54:52;98440.13;;;7.28;100.00
6532;BME280;3299;42.004;24.868;2023-01-15T14:57:19;98467.44;;;7.30;100.00
6532;BME280;3299;42.004;24.868;2023-01-15T14:59:56;98506.03;;;7.61;100.00
6532;BME280;3299;42.004;24.868;2023-01-15T15:02:35;98466.66;;;7.44;100.00
6532;BME280;3299;42.004;24.868;2023-01-15T15:05:02;98463.66;;;7.51;100.00
6532;BME280;3299;42.004;24.868;2023-01-15T15:07:39;98450.22;;;7.46;100.00
6532;BME280;3299;42.004;24.868;2023-01-15T15:10:23;98522.69;;;7.85;100.00
6532;BME280;3299;42.004;24.868;2023-01-15T15:23:14;98514.31;;;7.66;100.00
6532;BME280;3299;42.004;24.868;2023-01-15T15:25:51;98486.34;;;7.60;100.00
6532;BME280;3299;42.004;24.868;2023-01-15T15:28:18;98530.47;;;7.99;100.00
6532;BME280;3299;42.004;24.868;2023-01-15T15:30:44;98516.28;;;7.92;100.00
6532;BME280;3299;42.004;24.868;2023-01-15T15:33:23;98510.84;;;7.97;100.00
6532;BME280;3299;42.004;24.868;2023-01-15T15:35:57;98535.84;;;8.10;100.00
6532;BME280;3299;42.004;24.868;2023-01-15T15:38:25;98485.59;;;7.74;100.00
6532;BME280;3299;42.004;24.868;2023-01-15T15:40:55;98481.25;;;7.74;100.00
6532;BME280;3299;42.004;24.868;2023-01-15T15:43:43;98541.75;;;7.97;100.00
6532;BME280;3299;42.004;24.868;2023-01-15T15:46:31;98530.66;;;7.96;100.00
6532;BME280;3299;42.004;24.868;2023-01-15T15:49:16;98483.91;;;7.73;100.00